Argo II — SY5614 — position and weather

sailwx.info

Track history (hours):
 
Tides and Currents Weather Stations Pressure Air Temp Water Temp Dewpoint Dewpoint Depression Visibility Wind Speed Wind Dir Waves Ship Positions

Argo II

Last reported at 2018-Feb-25 04:24 UTC. Time now 2018-Feb-25 08:01 UTC.
Position N 40°40' E 024°00'.

Length 32 m; draft 3.8 m.

Type: Fishing. MMSI: 240259000.

Date/timePositionNaut miles runAvg speedWind from/ knotsBaromVisibWave heightAir tempDewpointWater temp
2018-Feb-25 04:24N 40°40' E 024°00'2 3.0
2018-Feb-25 03:45N 40°41' E 024°03'1 2.8
2018-Feb-25 03:25N 40°41' E 024°04'1 3.0
2018-Feb-25 02:59N 40°41' E 024°06'1 3.1
2018-Feb-25 02:30N 40°41' E 024°08'2 3.1
2018-Feb-25 02:00N 40°42' E 024°09'2 3.0
2018-Feb-25 01:30N 40°42' E 024°11'2 3.1
2018-Feb-25 01:00N 40°43' E 024°13'2 3.1
2018-Feb-25 00:30N 40°43' E 024°15'2 3.1
2018-Feb-25 00:00N 40°43' E 024°17'2 3.0
2018-Feb-24 23:29N 40°42' E 024°19'0 1.0
2018-Feb-24 23:00N 40°42' E 024°19'1 2.8
2018-Feb-24 22:30N 40°43' E 024°17'1 2.9
2018-Feb-24 22:00N 40°44' E 024°15'1 2.8
2018-Feb-24 21:30N 40°44' E 024°14'2 3.2
2018-Feb-24 21:00N 40°43' E 024°12'2 3.0
2018-Feb-24 20:23N 40°42' E 024°10'1 3.2
2018-Feb-24 20:00N 40°42' E 024°08'2 3.2
2018-Feb-24 19:30N 40°41' E 024°06'1 0.1
2018-Feb-24 08:10N 40°41' E 024°04'1 3.0
2018-Feb-24 08:00N 40°41' E 024°05'2 3.0
2018-Feb-24 07:19N 40°41' E 024°08'1 3.0
2018-Feb-24 06:55N 40°42' E 024°09'1 3.2
2018-Feb-24 06:30N 40°43' E 024°11'2 3.1
2018-Feb-24 05:58N 40°43' E 024°13'3 5.8
2018-Feb-24 05:26N 40°45' E 024°16'4 9.8
2018-Feb-24 04:59N 40°48' E 024°20'2 0.3
2018-Feb-23 20:40N 40°51' E 024°19'1 7.4
2018-Feb-23 20:30N 40°50' E 024°21'3 6.3
2018-Feb-23 20:00N 40°47' E 024°18'4 7.4
2018-Feb-23 19:29N 40°45' E 024°14'4 7.4
2018-Feb-23 19:00N 40°43' E 024°10'4 7.3
2018-Feb-23 18:30N 40°41' E 024°06'2 1.6
2018-Feb-23 17:09N 40°40' E 024°03'1 3.2
2018-Feb-23 16:58N 40°40' E 024°04'2 2.9
2018-Feb-23 16:26N 40°41' E 024°06'3 3.0
2018-Feb-23 15:27N 40°42' E 024°10'1 3.1
2018-Feb-23 15:00N 40°43' E 024°11'1 3.0
2018-Feb-23 14:30N 40°43' E 024°13'2 3.1
2018-Feb-23 14:00N 40°43' E 024°15'10 0.4
2018-Feb-22 11:40N 40°41' E 024°02'1 2.7
2018-Feb-22 11:10N 40°41' E 024°03'1 2.7
2018-Feb-22 10:59N 40°41' E 024°04'2 2.9
2018-Feb-22 10:26N 40°41' E 024°06'14 1.2
2018-Feb-21 22:59N 40°51' E 024°19'2 5.0
2018-Feb-21 22:31N 40°48' E 024°20'4 7.4
2018-Feb-21 22:00N 40°46' E 024°16'4 7.4
2018-Feb-21 21:31N 40°44' E 024°12'4 7.0
2018-Feb-21 20:58N 40°42' E 024°07'4 0.4
2018-Feb-21 10:57N 40°41' E 024°02'2 0.1
2018-Feb-20 09:56N 40°41' E 024°04'1 2.8
2018-Feb-20 09:30N 40°41' E 024°05'2 3.1
2018-Feb-20 08:58N 40°41' E 024°08'1 3.0
2018-Feb-20 08:30N 40°42' E 024°09'2 3.2
2018-Feb-20 08:00N 40°42' E 024°11'2 3.3
2018-Feb-20 07:30N 40°43' E 024°13'2 3.5
2018-Feb-20 07:00N 40°44' E 024°15'5 8.9
2018-Feb-20 06:29N 40°47' E 024°20'4 7.4
2018-Feb-20 06:00N 40°50' E 024°20'  
2018-Feb-17 04:23N 40°36' E 025°09'1 3.3
2018-Feb-17 03:57N 40°38' E 025°09'6 5.7
2018-Feb-17 02:58N 40°41' E 025°03'5 8.0
2018-Feb-17 02:19N 40°43' E 024°56'2 7.8
2018-Feb-17 02:00N 40°44' E 024°53'4 7.8
2018-Feb-17 01:30N 40°46' E 024°49'4 7.6
2018-Feb-17 01:00N 40°48' E 024°45'4 7.2
2018-Feb-17 00:30N 40°49' E 024°40'4 7.5
2018-Feb-17 00:00N 40°49' E 024°35'4 8.0
2018-Feb-16 23:30N 40°50' E 024°30'4 7.8
2018-Feb-16 23:00N 40°50' E 024°25'4 7.3
2018-Feb-16 22:30N 40°50' E 024°20'1 1.6
2018-Feb-16 22:00N 40°51' E 024°19'0 0.0
2018-Feb-16 21:30N 40°51' E 024°19'0 0.0
2018-Feb-16 21:00N 40°51' E 024°19'2 4.7
2018-Feb-16 20:31N 40°49' E 024°21'4 8.0
2018-Feb-16 20:00N 40°46' E 024°18'4 8.1
2018-Feb-16 19:30N 40°44' E 024°14'1 2.3
2018-Feb-16 19:00N 40°43' E 024°13'2 3.2
2018-Feb-16 18:28N 40°42' E 024°11'1 3.1
2018-Feb-16 17:59N 40°42' E 024°09'2 3.1
2018-Feb-16 17:18N 40°41' E 024°06'  
Track history (hours):
 
Tides and Currents Weather Stations Pressure Air Temp Water Temp Dewpoint Dewpoint Depression Visibility Wind Speed Wind Dir Waves Ship Positions

Argo II

Last reported at 2018-Feb-25 04:24 UTC. Time now 2018-Feb-25 08:01 UTC.
Position N 40°40' E 024°00'.

Length 32 m; draft 3.8 m.

Type: Fishing. MMSI: 240259000.

Date/timePositionNaut miles runAvg speedWind from/ knotsBaromVisibWave heightAir tempDewpointWater temp
2018-Feb-25 04:24N 40°40' E 024°00'2 3.0
2018-Feb-25 03:45N 40°41' E 024°03'1 2.8
2018-Feb-25 03:25N 40°41' E 024°04'1 3.0
2018-Feb-25 02:59N 40°41' E 024°06'1 3.1
2018-Feb-25 02:30N 40°41' E 024°08'2 3.1
2018-Feb-25 02:00N 40°42' E 024°09'2 3.0
2018-Feb-25 01:30N 40°42' E 024°11'2 3.1
2018-Feb-25 01:00N 40°43' E 024°13'2 3.1
2018-Feb-25 00:30N 40°43' E 024°15'2 3.1
2018-Feb-25 00:00N 40°43' E 024°17'2 3.0
2018-Feb-24 23:29N 40°42' E 024°19'0 1.0
2018-Feb-24 23:00N 40°42' E 024°19'1 2.8
2018-Feb-24 22:30N 40°43' E 024°17'1 2.9
2018-Feb-24 22:00N 40°44' E 024°15'1 2.8
2018-Feb-24 21:30N 40°44' E 024°14'2 3.2
2018-Feb-24 21:00N 40°43' E 024°12'2 3.0
2018-Feb-24 20:23N 40°42' E 024°10'1 3.2
2018-Feb-24 20:00N 40°42' E 024°08'2 3.2
2018-Feb-24 19:30N 40°41' E 024°06'1 0.1
2018-Feb-24 08:10N 40°41' E 024°04'1 3.0
2018-Feb-24 08:00N 40°41' E 024°05'2 3.0
2018-Feb-24 07:19N 40°41' E 024°08'1 3.0
2018-Feb-24 06:55N 40°42' E 024°09'1 3.2
2018-Feb-24 06:30N 40°43' E 024°11'2 3.1
2018-Feb-24 05:58N 40°43' E 024°13'3 5.8
2018-Feb-24 05:26N 40°45' E 024°16'4 9.8
2018-Feb-24 04:59N 40°48' E 024°20'2 0.3
2018-Feb-23 20:40N 40°51' E 024°19'1 7.4
2018-Feb-23 20:30N 40°50' E 024°21'3 6.3
2018-Feb-23 20:00N 40°47' E 024°18'4 7.4
2018-Feb-23 19:29N 40°45' E 024°14'4 7.4
2018-Feb-23 19:00N 40°43' E 024°10'4 7.3
2018-Feb-23 18:30N 40°41' E 024°06'2 1.6
2018-Feb-23 17:09N 40°40' E 024°03'1 3.2
2018-Feb-23 16:58N 40°40' E 024°04'2 2.9
2018-Feb-23 16:26N 40°41' E 024°06'3 3.0
2018-Feb-23 15:27N 40°42' E 024°10'1 3.1
2018-Feb-23 15:00N 40°43' E 024°11'1 3.0
2018-Feb-23 14:30N 40°43' E 024°13'2 3.1
2018-Feb-23 14:00N 40°43' E 024°15'10 0.4
2018-Feb-22 11:40N 40°41' E 024°02'1 2.7
2018-Feb-22 11:10N 40°41' E 024°03'1 2.7
2018-Feb-22 10:59N 40°41' E 024°04'2 2.9
2018-Feb-22 10:26N 40°41' E 024°06'14 1.2
2018-Feb-21 22:59N 40°51' E 024°19'2 5.0
2018-Feb-21 22:31N 40°48' E 024°20'4 7.4
2018-Feb-21 22:00N 40°46' E 024°16'4 7.4
2018-Feb-21 21:31N 40°44' E 024°12'4 7.0
2018-Feb-21 20:58N 40°42' E 024°07'4 0.4
2018-Feb-21 10:57N 40°41' E 024°02'2 0.1
2018-Feb-20 09:56N 40°41' E 024°04'1 2.8
2018-Feb-20 09:30N 40°41' E 024°05'2 3.1
2018-Feb-20 08:58N 40°41' E 024°08'1 3.0
2018-Feb-20 08:30N 40°42' E 024°09'2 3.2
2018-Feb-20 08:00N 40°42' E 024°11'2 3.3
2018-Feb-20 07:30N 40°43' E 024°13'2 3.5
2018-Feb-20 07:00N 40°44' E 024°15'5 8.9
2018-Feb-20 06:29N 40°47' E 024°20'4 7.4
2018-Feb-20 06:00N 40°50' E 024°20'  
2018-Feb-17 04:23N 40°36' E 025°09'1 3.3
2018-Feb-17 03:57N 40°38' E 025°09'6 5.7
2018-Feb-17 02:58N 40°41' E 025°03'5 8.0
2018-Feb-17 02:19N 40°43' E 024°56'2 7.8
2018-Feb-17 02:00N 40°44' E 024°53'4 7.8
2018-Feb-17 01:30N 40°46' E 024°49'4 7.6
2018-Feb-17 01:00N 40°48' E 024°45'4 7.2
2018-Feb-17 00:30N 40°49' E 024°40'4 7.5
2018-Feb-17 00:00N 40°49' E 024°35'4 8.0
2018-Feb-16 23:30N 40°50' E 024°30'4 7.8
2018-Feb-16 23:00N 40°50' E 024°25'4 7.3
2018-Feb-16 22:30N 40°50' E 024°20'1 1.6
2018-Feb-16 22:00N 40°51' E 024°19'0 0.0
2018-Feb-16 21:30N 40°51' E 024°19'0 0.0
2018-Feb-16 21:00N 40°51' E 024°19'2 4.7
2018-Feb-16 20:31N 40°49' E 024°21'4 8.0
2018-Feb-16 20:00N 40°46' E 024°18'4 8.1
2018-Feb-16 19:30N 40°44' E 024°14'1 2.3
2018-Feb-16 19:00N 40°43' E 024°13'2 3.2
2018-Feb-16 18:28N 40°42' E 024°11'1 3.1
2018-Feb-16 17:59N 40°42' E 024°09'2 3.1
2018-Feb-16 17:18N 40°41' E 024°06'  

Dump ship's entire track history